createdAt,value
2023-05-12T00:02:06.638Z,15.00
2023-05-12T00:07:10.531Z,15.00
2023-05-12T00:12:15.456Z,15.00
2023-05-12T00:17:19.180Z,14.90
2023-05-12T00:22:22.748Z,14.90
2023-05-12T00:27:27.403Z,14.80
2023-05-12T00:32:31.647Z,14.80
2023-05-12T00:37:35.341Z,14.80
2023-05-12T00:42:40.551Z,14.90
2023-05-12T00:47:44.230Z,14.90
2023-05-12T00:52:48.426Z,15.00
2023-05-12T00:57:53.689Z,14.90
2023-05-12T01:02:58.646Z,14.80
2023-05-12T01:08:05.248Z,14.80
2023-05-12T01:13:10.376Z,14.80
2023-05-12T01:18:16.423Z,14.80
2023-05-12T01:23:21.662Z,14.80
2023-05-12T01:28:26.314Z,14.70
2023-05-12T01:33:30.656Z,14.70
2023-05-12T01:38:34.539Z,14.70
2023-05-12T01:43:39.775Z,14.70
2023-05-12T01:48:44.512Z,14.60
2023-05-12T01:53:47.917Z,14.60
2023-05-12T01:58:52.814Z,14.50
2023-05-12T02:03:57.153Z,14.50
2023-05-12T02:09:02.847Z,14.50
2023-05-12T02:14:08.134Z,14.40
2023-05-12T02:19:11.729Z,14.50
2023-05-12T02:24:16.520Z,14.40
2023-05-12T02:29:21.703Z,14.40
2023-05-12T02:34:25.560Z,14.40
2023-05-12T02:39:29.348Z,14.40
2023-05-12T02:44:34.923Z,14.40
2023-05-12T02:49:38.526Z,14.40
2023-05-12T02:54:42.000Z,14.40
2023-05-12T02:59:46.627Z,14.40
2023-05-12T03:04:49.909Z,14.40
2023-05-12T03:09:53.208Z,14.40
2023-05-12T03:14:59.335Z,14.30
2023-05-12T03:20:03.160Z,14.30
2023-05-12T03:25:08.355Z,14.30
2023-05-12T03:30:15.106Z,14.20
2023-05-12T03:35:18.860Z,14.10
2023-05-12T03:40:23.019Z,14.10
2023-05-12T03:45:28.477Z,14.10
2023-05-12T03:50:32.088Z,14.10
2023-05-12T03:55:36.632Z,14.00
2023-05-12T04:00:42.142Z,14.00
2023-05-12T04:05:45.374Z,14.00
2023-05-12T04:10:48.546Z,14.00
2023-05-12T04:15:55.970Z,14.00
2023-05-12T04:20:59.922Z,14.10
2023-05-12T04:26:05.671Z,14.10
2023-05-12T04:31:10.313Z,14.10
2023-05-12T04:36:14.854Z,14.20
2023-05-12T04:41:18.302Z,14.30
2023-05-12T04:46:23.204Z,14.40
2023-05-12T04:51:26.669Z,14.50
2023-05-12T04:56:30.246Z,14.50
2023-05-12T05:01:35.172Z,14.60
2023-05-12T05:06:39.310Z,14.70
2023-05-12T05:11:43.556Z,14.80
2023-05-12T05:16:48.647Z,14.90
2023-05-12T05:21:52.276Z,15.20
2023-05-12T05:26:55.963Z,15.40
2023-05-12T05:32:00.970Z,15.60
2023-05-12T05:37:04.834Z,15.70
2023-05-12T05:42:08.887Z,15.80
2023-05-12T05:47:13.721Z,15.90
2023-05-12T05:52:17.698Z,16.10
2023-05-12T05:57:21.322Z,16.40
2023-05-12T06:02:27.038Z,16.60
2023-05-12T06:07:30.504Z,17.00
2023-05-12T06:12:34.262Z,17.10
2023-05-12T06:17:39.618Z,17.30
2023-05-12T06:22:44.345Z,17.70
2023-05-12T06:27:47.565Z,18.20
2023-05-12T06:32:52.816Z,18.40
2023-05-12T06:37:56.446Z,18.70
2023-05-12T06:43:00.096Z,19.00
2023-05-12T06:48:06.437Z,19.30
2023-05-12T06:53:10.221Z,19.30
2023-05-12T06:58:13.909Z,19.10
2023-05-12T07:03:18.942Z,19.10
2023-05-12T07:08:22.489Z,19.30
2023-05-12T07:13:26.114Z,19.30
2023-05-12T07:18:32.100Z,19.20
2023-05-12T07:23:36.218Z,19.30
2023-05-12T07:28:39.849Z,19.40
2023-05-12T07:33:44.921Z,19.30
2023-05-12T07:38:48.739Z,19.30
2023-05-12T07:43:52.024Z,19.40
2023-05-12T07:48:57.744Z,19.50
2023-05-12T07:54:02.101Z,19.70
2023-05-12T07:59:06.698Z,19.70
2023-05-12T08:04:12.069Z,19.90
2023-05-12T08:09:15.402Z,20.10
2023-05-12T08:14:18.620Z,20.30
2023-05-12T08:19:23.537Z,20.50
2023-05-12T08:24:27.792Z,20.70
2023-05-12T08:29:31.415Z,20.90
2023-05-12T08:34:36.594Z,20.90
2023-05-12T08:39:40.442Z,21.00
2023-05-12T08:44:43.988Z,21.10
2023-05-12T08:49:56.069Z,21.30
2023-05-12T08:55:01.072Z,21.50
2023-05-12T09:00:09.166Z,21.50
2023-05-12T09:05:17.285Z,21.60
2023-05-12T09:10:33.509Z,21.60
2023-05-12T09:15:47.375Z,21.60
2023-05-12T09:20:52.512Z,21.60
2023-05-12T09:26:01.705Z,21.70
2023-05-12T09:31:16.970Z,21.60
2023-05-12T09:36:22.252Z,21.80
2023-05-12T09:41:26.214Z,22.00
2023-05-12T09:46:30.018Z,21.90
2023-05-12T09:51:35.519Z,22.10
2023-05-12T09:56:39.969Z,22.20
2023-05-12T10:01:44.068Z,22.30
2023-05-12T10:06:49.848Z,22.40
2023-05-12T10:11:54.106Z,22.50
2023-05-12T10:16:58.713Z,22.60
2023-05-12T10:22:04.127Z,22.60
2023-05-12T10:27:08.712Z,22.80
2023-05-12T10:32:12.894Z,22.80
2023-05-12T10:37:18.194Z,22.90
2023-05-12T10:42:25.814Z,22.80
2023-05-12T10:47:38.824Z,22.80
2023-05-12T10:52:55.160Z,22.80
2023-05-12T10:58:06.689Z,22.70
2023-05-12T11:03:15.861Z,22.80
2023-05-12T11:08:23.125Z,22.90
2023-05-12T11:13:27.248Z,22.90
2023-05-12T11:18:30.970Z,23.00
2023-05-12T11:23:36.037Z,22.70
2023-05-12T11:28:42.410Z,22.50
2023-05-12T11:33:46.200Z,22.40
2023-05-12T11:38:54.150Z,22.30
2023-05-12T11:43:57.806Z,22.40
2023-05-12T11:49:02.145Z,22.60
2023-05-12T11:54:09.432Z,22.70
2023-05-12T11:59:13.106Z,22.50
2023-05-12T12:04:16.881Z,22.30
2023-05-12T12:09:32.460Z,22.60
2023-05-12T12:14:38.394Z,22.70
2023-05-12T12:19:42.042Z,22.90
2023-05-12T12:24:47.153Z,23.20
2023-05-12T12:29:51.133Z,23.40
2023-05-12T12:34:54.557Z,23.40
2023-05-12T12:39:59.482Z,23.40
2023-05-12T12:45:03.583Z,23.70
2023-05-12T12:50:10.347Z,24.30
2023-05-12T12:55:15.047Z,24.80
2023-05-12T13:00:19.799Z,25.10
2023-05-12T13:05:23.497Z,25.20
2023-05-12T13:10:29.047Z,25.20
2023-05-12T13:15:33.590Z,25.50
2023-05-12T13:20:37.493Z,25.60
2023-05-12T13:25:44.563Z,25.70
2023-05-12T13:30:48.252Z,25.40
2023-05-12T13:35:51.938Z,25.00
2023-05-12T13:40:57.075Z,25.10
2023-05-12T13:46:00.758Z,25.30
2023-05-12T13:51:04.621Z,25.10
2023-05-12T13:56:10.545Z,24.80
2023-05-12T14:01:14.478Z,24.50
2023-05-12T14:06:18.091Z,24.10
2023-05-12T14:11:22.988Z,23.90
2023-05-12T14:16:26.642Z,24.20
2023-05-12T14:21:30.362Z,24.60
2023-05-12T14:26:35.365Z,24.60
2023-05-12T14:31:39.018Z,24.30
2023-05-12T14:36:42.550Z,24.10
2023-05-12T14:41:47.597Z,23.80
2023-05-12T14:46:50.850Z,23.60
2023-05-12T14:51:54.092Z,23.40
2023-05-12T14:56:58.672Z,23.60
2023-05-12T15:02:01.931Z,23.90
2023-05-12T15:07:06.106Z,24.20
2023-05-12T15:12:11.829Z,24.80
2023-05-12T15:17:15.361Z,25.20
2023-05-12T15:22:19.186Z,25.20
2023-05-12T15:27:24.345Z,25.00
2023-05-12T15:32:27.682Z,24.70
2023-05-12T15:37:30.947Z,24.40
2023-05-12T15:42:35.889Z,24.10
2023-05-12T15:47:39.667Z,23.90
2023-05-12T15:52:43.301Z,23.60
2023-05-12T15:57:48.465Z,23.70
2023-05-12T16:02:52.108Z,23.80
2023-05-12T16:07:55.757Z,24.00
2023-05-12T16:13:00.799Z,24.40
2023-05-12T16:18:05.945Z,24.60
2023-05-12T16:23:11.121Z,25.10
2023-05-12T16:28:16.045Z,25.00
2023-05-12T16:33:19.815Z,24.60
2023-05-12T16:38:23.145Z,24.10
2023-05-12T16:43:27.758Z,23.70
2023-05-12T16:48:34.745Z,23.40
2023-05-12T16:53:38.805Z,23.20
2023-05-12T16:58:44.370Z,23.50
2023-05-12T17:03:48.165Z,23.80
2023-05-12T17:08:52.048Z,24.70
2023-05-12T17:13:57.112Z,25.80
2023-05-12T17:24:08.181Z,25.60
2023-05-12T17:29:12.809Z,22.20
2023-05-12T17:34:16.613Z,19.30
2023-05-12T17:39:20.531Z,18.30
2023-05-12T17:44:25.489Z,17.90
2023-05-12T17:49:29.246Z,17.90
2023-05-12T17:54:33.027Z,18.00
2023-05-12T17:59:38.059Z,18.20
2023-05-12T18:04:41.644Z,18.40
2023-05-12T18:09:45.004Z,18.60
2023-05-12T18:14:50.468Z,18.80
2023-05-12T18:19:53.691Z,18.90
2023-05-12T18:24:57.038Z,18.90
2023-05-12T18:30:02.084Z,19.00
2023-05-12T18:35:06.165Z,19.00
2023-05-12T18:40:10.373Z,19.00
2023-05-12T18:45:15.722Z,18.90
2023-05-12T18:50:19.337Z,18.80
2023-05-12T18:55:23.086Z,18.70
2023-05-12T19:00:31.894Z,18.60
2023-05-12T19:05:35.324Z,18.50
2023-05-12T19:10:39.988Z,18.30
2023-05-12T19:15:45.298Z,18.20
2023-05-12T19:20:49.390Z,18.10
2023-05-12T19:25:53.112Z,18.10
2023-05-12T19:30:58.299Z,18.00
2023-05-12T19:36:02.131Z,17.90
2023-05-12T19:41:05.915Z,17.80
2023-05-12T19:46:10.959Z,17.70
2023-05-12T19:51:14.679Z,17.60
2023-05-12T19:56:19.274Z,17.50
2023-05-12T20:01:23.862Z,17.40
2023-05-12T20:06:27.137Z,17.20
2023-05-12T20:11:30.698Z,17.10
2023-05-12T20:16:35.469Z,17.00
2023-05-12T20:21:39.050Z,17.00
2023-05-12T20:26:42.278Z,17.00
2023-05-12T20:31:47.695Z,16.90
2023-05-12T20:36:50.819Z,16.70
2023-05-12T20:41:54.297Z,16.50
2023-05-12T20:46:58.909Z,16.40
2023-05-12T20:52:02.169Z,16.40
2023-05-12T20:57:05.689Z,16.30
2023-05-12T21:02:10.872Z,16.20
2023-05-12T21:07:14.923Z,16.20
2023-05-12T21:12:18.597Z,16.20
2023-05-12T21:17:23.580Z,16.20
2023-05-12T21:22:27.707Z,16.00
2023-05-12T21:27:31.708Z,15.80
2023-05-12T21:32:36.844Z,15.60
2023-05-12T21:37:40.288Z,15.60
2023-05-12T21:42:44.132Z,15.60
2023-05-12T21:47:51.214Z,15.70
2023-05-12T21:52:54.993Z,15.70
2023-05-12T21:57:58.739Z,15.80
2023-05-12T22:03:03.928Z,16.00
2023-05-12T22:08:07.435Z,16.00
2023-05-12T22:13:10.760Z,16.10
2023-05-12T22:18:15.540Z,16.00
2023-05-12T22:23:18.803Z,16.00
2023-05-12T22:28:22.082Z,15.80
2023-05-12T22:33:27.106Z,15.60
2023-05-12T22:38:30.347Z,15.30
2023-05-12T22:43:33.600Z,14.90
2023-05-12T22:48:39.361Z,14.80
2023-05-12T22:53:43.360Z,14.60
2023-05-12T22:58:46.586Z,14.50
2023-05-12T23:03:51.653Z,14.40
2023-05-12T23:08:55.300Z,14.20
2023-05-12T23:13:59.159Z,14.10
2023-05-12T23:19:04.417Z,14.00
2023-05-12T23:24:08.898Z,13.80
2023-05-12T23:29:12.651Z,13.60
2023-05-12T23:34:17.704Z,13.50
2023-05-12T23:39:21.291Z,13.30
2023-05-12T23:44:24.909Z,13.20
2023-05-12T23:49:29.565Z,13.00
2023-05-12T23:54:32.752Z,13.00
2023-05-12T23:59:36.156Z,13.10
